createdAt,value
2023-02-16T00:05:08.806Z,15.3
2023-02-16T00:15:08.898Z,15.3
2023-02-16T00:25:08.392Z,15.3
2023-02-16T00:35:08.031Z,15.3
2023-02-16T00:45:07.935Z,15.3
2023-02-16T00:55:07.377Z,15.3
2023-02-16T01:05:06.893Z,14.8
2023-02-16T01:15:07.006Z,15.3
2023-02-16T01:25:07.247Z,14.8
2023-02-16T01:35:06.837Z,14.8
2023-02-16T01:45:06.642Z,15.3
2023-02-16T01:55:06.408Z,15.3
2023-02-16T02:05:05.744Z,15.3
2023-02-16T02:15:05.586Z,15.2
2023-02-16T02:25:05.127Z,15.3
2023-02-16T02:35:05.184Z,15.3
2023-02-16T02:45:05.042Z,15.3
2023-02-16T02:55:04.609Z,15.1
2023-02-16T03:06:08.070Z,15.3
2023-02-16T03:16:06.955Z,15.2
2023-02-16T03:26:07.173Z,15.2
2023-02-16T03:36:06.566Z,15.2
2023-02-16T03:46:06.116Z,15.3
2023-02-16T03:56:05.914Z,15.3
2023-02-16T04:06:06.190Z,15.1
2023-02-16T04:16:06.628Z,15.1
2023-02-16T04:26:07.662Z,14.9
2023-02-16T04:36:07.324Z,15.1
2023-02-16T04:46:08.570Z,15.1
2023-02-16T04:56:09.857Z,15.1
2023-02-16T05:06:09.066Z,15.1
2023-02-16T05:16:09.833Z,15.3
2023-02-16T05:26:09.848Z,15.1
2023-02-16T05:36:09.034Z,15.2
2023-02-16T05:46:08.600Z,15.2
2023-02-16T05:56:08.057Z,15.1
2023-02-16T06:06:11.325Z,14.8
2023-02-16T06:16:18.261Z,14.6
2023-02-16T06:26:27.046Z,14.7
2023-02-16T06:36:35.532Z,14.8
2023-02-16T06:46:45.066Z,14.8
2023-02-16T06:56:55.823Z,14.3
2023-02-16T07:07:03.898Z,14.6
2023-02-16T07:17:13.899Z,14.9
2023-02-16T07:27:23.984Z,14.8
2023-02-16T07:37:33.658Z,14.3
2023-02-16T07:47:44.104Z,14.4
2023-02-16T07:57:56.336Z,14.9
2023-02-16T08:08:07.294Z,15.2
2023-02-16T08:18:19.733Z,15.2
2023-02-16T08:28:27.757Z,15.1
2023-02-16T08:38:39.451Z,15.1
2023-02-16T08:48:47.340Z,15.3
2023-02-16T08:57:14.110Z,14.9
2023-02-16T09:15:45.177Z,14.8
2023-02-16T09:27:41.794Z,15.3
2023-02-16T09:37:55.648Z,15.8
2023-02-16T09:48:10.408Z,15.6
2023-02-16T09:58:19.838Z,15.3
2023-02-16T10:08:26.968Z,15.1
2023-02-16T10:18:39.151Z,15.7
2023-02-16T10:28:52.321Z,15.4
2023-02-16T10:39:05.178Z,15.9
2023-02-16T10:49:18.874Z,16.1
2023-02-16T10:59:35.017Z,16.1
2023-02-16T11:09:43.863Z,15.7
2023-02-16T11:19:58.557Z,15.8
2023-02-16T11:30:09.809Z,14.9
2023-02-16T11:40:21.685Z,15.9
2023-02-16T11:50:33.473Z,15.7
2023-02-16T12:00:45.360Z,15.8
2023-02-16T12:10:55.666Z,15.1
2023-02-16T12:21:02.433Z,15.1
2023-02-16T12:31:07.942Z,15.3
2023-02-16T12:41:11.748Z,15.3
2023-02-16T12:51:16.735Z,15.3
2023-02-16T13:01:20.680Z,15.3
2023-02-16T13:11:24.414Z,15.3
2023-02-16T13:21:27.638Z,15.4
2023-02-16T13:31:31.943Z,15.3
2023-02-16T13:41:35.585Z,15.4
2023-02-16T13:51:39.230Z,15.4
2023-02-16T14:01:42.872Z,15.3
2023-02-16T14:11:46.501Z,15.4
2023-02-16T14:21:50.118Z,15.3
2023-02-16T14:31:53.795Z,15.4
2023-02-16T14:41:57.271Z,15.6
2023-02-16T14:51:59.715Z,15.3
2023-02-16T15:06:08.071Z,15.8
2023-02-16T15:16:10.256Z,15.3
2023-02-16T15:26:14.219Z,15.4
2023-02-16T15:36:16.620Z,15.8
2023-02-16T15:46:18.678Z,15.4
2023-02-16T15:56:22.117Z,15.3
2023-02-16T16:06:25.098Z,15.7
2023-02-16T16:16:28.330Z,15.8
2023-02-16T16:26:31.241Z,15.4
2023-02-16T16:36:32.256Z,15.6
2023-02-16T16:46:35.665Z,15.7
2023-02-16T16:56:38.558Z,15.8
2023-02-16T17:06:39.296Z,15.2
2023-02-16T17:16:39.644Z,15.7
2023-02-16T17:26:40.215Z,15.7
2023-02-16T17:36:40.365Z,15.7
2023-02-16T17:46:41.453Z,15.3
2023-02-16T17:56:43.179Z,15.7
2023-02-16T18:06:44.197Z,15
2023-02-16T18:16:45.495Z,15.1
2023-02-16T18:26:46.213Z,15.4
2023-02-16T18:36:46.561Z,15.8
2023-02-16T18:46:46.355Z,15.7
2023-02-16T18:56:46.195Z,15.8
2023-02-16T19:06:45.918Z,15.8
2023-02-16T19:16:45.332Z,15.7
2023-02-16T19:26:44.368Z,15.7
2023-02-16T19:36:44.116Z,15.6
2023-02-16T19:46:44.886Z,15.8
2023-02-16T19:56:46.019Z,15.2
2023-02-16T20:06:45.452Z,15.7
2023-02-16T20:16:45.400Z,15.7
2023-02-16T20:26:46.162Z,15.6
2023-02-16T20:36:47.669Z,15.3
2023-02-16T20:46:47.877Z,15.7
2023-02-16T20:56:48.716Z,15.4
2023-02-16T21:06:08.587Z,15.7
2023-02-16T21:16:08.880Z,15.6
2023-02-16T21:26:10.138Z,15.1
2023-02-16T21:36:10.392Z,15.8
2023-02-16T21:46:11.944Z,15.7
2023-02-16T21:56:11.924Z,15.7
2023-02-16T22:06:12.813Z,15.8
2023-02-16T22:16:14.664Z,15.7
2023-02-16T22:26:17.546Z,15.8
2023-02-16T22:36:19.530Z,15.7
2023-02-16T22:46:21.092Z,15.7
2023-02-16T22:56:22.028Z,15.8
2023-02-16T23:06:22.821Z,15.8
2023-02-16T23:16:22.069Z,15.6
2023-02-16T23:26:23.393Z,15.2
2023-02-16T23:36:23.564Z,15.7
2023-02-16T23:46:23.117Z,15.6
2023-02-16T23:56:22.948Z,15.7
